Flight Track Log - Related Links

Times and Time Zones

All times are in EDT time to prevent confusion due to time zone crossing. See the SKW4664 flight status page for this flight to view local times or setup timezone preferences in your user account.

Time Position Orientation Groundspeed Altitude Reporting Facility
EDT Latitude Longitude Course Direction KTS MPH feet Rate Location/Type
Thu 12:05:32 PM 43.5392 -96.7169 121° Southeast 230 265 4,200  Level Minneapolis Center
Thu 12:06:34 PM 43.5853 -96.6425 49° Northeast 248 285 6,500 2,806 Climbing Minneapolis Center
Thu 12:07:00 PM 43.8523 -96.2348 53° Northeast  Level FlightAware Approximate
Thu 12:07:36 PM 43.6467 -96.5386 51° Northeast 275 316 10,000  Level Minneapolis Center
Thu 12:08:00 PM 43.9221 -96.1068 52° Northeast  Level FlightAware Approximate
Thu 12:08:38 PM 43.6989 -96.4483 51° Northeast 289 333 12,200  Level Minneapolis Center
Thu 12:09:00 PM 43.9929 -95.9798 52° Northeast  Level FlightAware Approximate
Thu 12:09:40 PM 43.7581 -96.3494 50° Northeast 321 369 14,500  Level Minneapolis Center
Thu 12:10:42 PM 43.8192 -96.2481 50° Northeast 343 395 16,400 1,742 Climbing Minneapolis Center
Thu 12:11:44 PM 43.8811 -96.1442 50° Northeast 351 404 18,100 1,887 Climbing Minneapolis Center
Thu 12:12:46 PM 43.9553 -96.0158 51° Northeast 359 413 20,300 1,707 Climbing Minneapolis Center
Thu 12:13:47 PM 44.0200 -95.9072 50° Northeast 367 422 21,600 1,317 Climbing Minneapolis Center
Thu 12:14:49 PM 44.0856 -95.7939 51° Northeast 379 436 23,000 677 Climbing Minneapolis Center
Thu 12:15:51 PM 44.1539 -95.6781 51° Northeast 388 447 23,000  Level Minneapolis Center
Thu 12:16:53 PM 44.2203 -95.5636 51° Northeast 386 444 23,000  Level Minneapolis Center
Thu 12:17:55 PM 44.2992 -95.4278 51° Northeast 380 437 23,000  Level Minneapolis Center
Thu 12:18:57 PM 44.3639 -95.3153 51° Northeast 377 434 23,000  Level Minneapolis Center
Thu 12:19:59 PM 44.4292 -95.2014 51° Northeast 376 433 23,000  Level Minneapolis Center
Thu 12:21:01 PM 44.4850 -95.0769 58° Northeast 378 435 23,000  Level Minneapolis Center
Thu 12:22:02 PM 44.5156 -94.9278 74° East 391 450 23,000 -341 Level Minneapolis Center
Thu 12:23:04 PM 44.5503 -94.7825 71° East 395 455 22,300 -1,887 Descending Minneapolis Center
Thu 12:24:06 PM 44.5906 -94.6103 72° East 393 452 19,100 -2,678 Descending Minneapolis Center
Thu 12:25:05 PM 44.6258 -94.4833 69° East 377 434 16,900 -2,278 Descending FAA TRACON SMA TRACON (SMA)
Thu 12:25:25 PM 44.6347 -94.4408 74° East 373 429 16,100 -2,700 Descending FAA TRACON SMA TRACON (SMA)
Thu 12:25:45 PM 44.6472 -94.3883 71° East 369 425 15,100 -2,550 Descending FAA TRACON SMA TRACON (SMA)
Thu 12:26:05 PM 44.6561 -94.3472 73° East 362 417 14,400 -2,308 Descending FAA TRACON SMA TRACON (SMA)
Thu 12:26:24 PM 44.6658 -94.3061 72° East 358 412 13,600 -2,769 Descending FAA TRACON SMA TRACON (SMA)
Thu 12:26:44 PM 44.6775 -94.2564 72° East 352 405 12,600 -2,550 Descending FAA TRACON SMA TRACON (SMA)
Thu 12:27:04 PM 44.6847 -94.2156 76° East 349 402 11,900 -2,250 Descending FAA TRACON SMA TRACON (SMA)
Thu 12:27:24 PM 44.6931 -94.1761 73° East 344 396 11,100 -1,350 Descending FAA TRACON SMA TRACON (SMA)
Thu 12:27:44 PM 44.7050 -94.1292 70° East 335 386 11,000 -150 Descending FAA TRACON SMA TRACON (SMA)
Thu 12:28:04 PM 44.7117 -94.0908 76° East 328 377 11,000  Level FAA TRACON SMA TRACON (SMA)
Thu 12:28:24 PM 44.7197 -94.0528 73° East 329 379 11,000  Level FAA TRACON SMA TRACON (SMA)
Thu 12:28:44 PM 44.7306 -94.0061 72° East 327 376 11,000  Level FAA TRACON SMA TRACON (SMA)
Thu 12:29:04 PM 44.7383 -93.9683 74° East 328 377 11,000  Level FAA TRACON SMA TRACON (SMA)
Thu 12:29:24 PM 44.7461 -93.9306 74° East 326 375 11,000  Level FAA TRACON SMA TRACON (SMA)
Thu 12:29:45 PM 44.7556 -93.8839 74° East 325 374 11,000  Level FAA TRACON SMA TRACON (SMA)
Thu 12:30:05 PM 44.7642 -93.8467 72° East 324 373 11,000  Level FAA TRACON SMA TRACON (SMA)
Thu 12:30:25 PM 44.7731 -93.8094 71° East 325 374 11,000  Level FAA TRACON SMA TRACON (SMA)
Thu 12:30:45 PM 44.7828 -93.7617 74° East 330 380 11,000  Level FAA TRACON SMA TRACON (SMA)
Thu 12:31:04 PM 44.7911 -93.7239 73° East 330 380 11,000  Level FAA TRACON SMA TRACON (SMA)
Thu 12:31:24 PM 44.7997 -93.6861 72° East 331 381 11,000 -450 Level FAA TRACON SMA TRACON (SMA)
Thu 12:31:44 PM 44.8100 -93.6386 73° East 329 379 10,700 -900 Descending FAA TRACON SMA TRACON (SMA)
Thu 12:32:04 PM 44.8175 -93.6031 73° East 316 364 10,400 -900 Descending FAA TRACON SMA TRACON (SMA)
Thu 12:32:24 PM 44.8253 -93.5686 72° East 302 348 10,100 -1,050 Descending FAA TRACON SMA TRACON (SMA)
Thu 12:32:44 PM 44.8344 -93.5253 73° East 300 345 9,700 -1,050 Descending FAA TRACON SMA TRACON (SMA)
Thu 12:33:04 PM 44.8425 -93.4903 72° East 302 348 9,400 -878 Descending FAA TRACON SMA TRACON (SMA)
Thu 12:33:25 PM 44.8497 -93.4556 74° East 302 348 9,100 -1,024 Descending FAA TRACON SMA TRACON (SMA)
Thu 12:33:45 PM 44.8586 -93.4111 74° East 305 351 8,700 -1,050 Descending FAA TRACON SMA TRACON (SMA)
Thu 12:34:05 PM 44.8536 -93.3756 101° East 310 357 8,400 -900 Descending FAA TRACON SMA TRACON (SMA)
Thu 12:34:25 PM 44.8389 -93.3472 126° Southeast 302 348 8,100 -600 Descending FAA TRACON SMA TRACON (SMA)
Thu 12:34:45 PM 44.8208 -93.3122 126° Southeast 284 327 8,000 -150 Descending FAA TRACON SMA TRACON (SMA)
Thu 12:35:05 PM 44.8069 -93.2839 125° Southeast 284 327 8,000  Level FAA TRACON SMA TRACON (SMA)
Thu 12:35:25 PM 44.7889 -93.2475 125° Southeast 294 338 8,000 -150 Level FAA TRACON SMA TRACON (SMA)
Thu 12:35:45 PM 44.7744 -93.2178 124° Southeast 297 342 7,900 -462 Descending FAA TRACON SMA TRACON (SMA)
Thu 12:36:04 PM 44.7608 -93.1894 124° Southeast 289 333 7,700 -923 Descending FAA TRACON SMA TRACON (SMA)
Thu 12:36:24 PM 44.7475 -93.1617 124° Southeast 280 322 7,300 -1,350 Descending FAA TRACON SMA TRACON (SMA)
Thu 12:36:44 PM 44.7311 -93.1275 124° Southeast 275 316 6,800 -1,350 Descending FAA TRACON SMA TRACON (SMA)
Thu 12:37:04 PM 44.7178 -93.1008 125° Southeast 272 313 6,400 -1,950 Descending FAA TRACON SMA TRACON (SMA)
Thu 12:37:24 PM 44.7028 -93.0658 121° Southeast 272 313 5,500 -2,400 Descending FAA TRACON SMA TRACON (SMA)
Thu 12:37:44 PM 44.7025 -93.0331 91° East 283 326 4,800 -1,800 Descending FAA TRACON SMA TRACON (SMA)
Thu 12:38:04 PM 44.7147 -93.0075 56° Northeast 279 321 4,300 -1,200 Descending FAA TRACON SMA TRACON (SMA)
Thu 12:38:24 PM 44.7369 -92.9825 39° Northeast 265 305 4,000 -439 Descending FAA TRACON SMA TRACON (SMA)
Thu 12:38:45 PM 44.7544 -92.9644 36° Northeast 257 296 4,000  Level FAA TRACON SMA TRACON (SMA)
Thu 12:39:05 PM 44.7750 -92.9608 North 258 297 4,000 -150 Level FAA TRACON SMA TRACON (SMA)
Thu 12:39:25 PM 44.7947 -92.9833 321° Northwest 253 291 3,900 -150 Descending FAA TRACON SMA TRACON (SMA)
Thu 12:39:45 PM 44.7994 -93.0083 285° West 232 267 3,900 -300 Level FAA TRACON SMA TRACON (SMA)
Thu 12:40:05 PM 44.8044 -93.0314 287° West 206 237 3,700 -923 Descending FAA TRACON SMA TRACON (SMA)
Thu 12:40:24 PM 44.8128 -93.0589 293° West 196 226 3,300 -1,263 Descending FAA TRACON SMA TRACON (SMA)

Login

Don't have an account? Register now (free) for customized features, flight alerts, and more!